Terminal Aerodrome Forecast
Issued by NWS Cleveland, OH

Home | Current Version | Previous Version | Graphics & Text | Print | Product List | Glossary On
Versions: 1 2 3 4 5 6 7 8 9 10 11 12 13 14 15 16 17 18 19 20 21 22 23 24 25
000
FTUS41 KCLE 061100
TAFCAK
TAF
KCAK 061137Z 0612/0712 20005KT P6SM SKC
     FM061600 22008KT P6SM SCT025 BKN200
     FM061800 22010KT P6SM BKN025
     FM070000 20010KT P6SM BKN050 OVC120
     FM071000 21010KT P6SM OVC025=

USA.gov is the U.S. government's official web portal to all federal, state and local government web resources and services.